Latest Weather Observations for Adelaide

IDS60901

Issued at 3:11 pm CST Saturday 23 May 2015 (issued every 10 minutes, with the page automatically refreshed every 10 minutes)

About weather observations | Map of Adelaide area stations | Latest observations for Adelaide area | Other Formats
Station Details ID: 023090 Name: KENT TOWN Lat: -34.92 Lon: 138.62 Height: 48.0 m
Data from the previous 72 hours. | See also: Recent months at Adelaide
Date/Time
CST
Tmp

°C
App
Tmp
°C
Dew
Point
°C
Rel
Hum
%
Delta-T

°C
Wind Press
QNH
hPa
Press
MSL
hPa
Rain
since
9 am
mm
Dir
 
Spd
km/h
Gust
km/h
Spd
kts
Gust
kts
23/03:00pm 16.5 13.7 7.0 53 4.7 WSW 11 15 6 8 1029.2 1029.2 0.0
23/02:30pm 17.2 15.2 6.1 48 5.4 NW 6 9 3 5 1029.1 - 0.0
23/02:00pm 17.1 15.9 6.5 49 5.2 S 2 6 1 3 1029.2 - 0.0
23/01:30pm 16.9 14.7 6.2 49 5.2 NE 7 13 4 7 1029.4 - 0.0
23/01:00pm 16.9 15.4 7.0 52 4.9 NW 4 9 2 5 1029.7 - 0.0
23/12:30pm 16.1 14.8 5.9 50 4.9 NW 2 7 1 4 1030.2 - 0.0
23/12:00pm 16.0 13.7 5.5 49 5.0 N 7 11 4 6 1030.8 1030.8 0.0
23/11:30am 15.9 13.7 5.3 49 5.1 NNW 6 11 3 6 1031.3 - 0.0
23/11:00am 14.8 13.5 6.0 55 4.2 SW 2 7 1 4 1031.7 - 0.0
23/10:30am 14.5 13.2 5.8 56 4.1 W 2 9 1 5 1032.1 - 0.0
23/10:00am 13.7 12.0 5.8 59 3.7 WNW 4 7 2 4 1032.1 - 0.0
23/09:30am 13.2 11.9 6.2 62 3.3 NNW 2 7 1 4 1032.2 - 0.0
23/09:00am 11.1 10.3 6.6 74 2.1 CALM 0 6 0 3 1032.1 1032.1 0.2
23/08:30am 9.1 8.3 6.5 84 1.2 CALM 0 0 0 0 1032.0 - 0.2
23/08:00am 5.9 4.9 5.4 97 0.2 CALM 0 0 0 0 1032.0 - 0.2
23/07:30am 4.7 3.4 4.0 95 0.3 CALM 0 0 0 0 1031.8 - 0.2
23/07:00am 4.8 3.5 4.1 95 0.3 CALM 0 0 0 0 1031.6 - 0.2
23/06:30am 4.9 3.6 3.9 93 0.4 CALM 0 0 0 0 1031.4 - 0.2
23/06:00am 4.8 3.5 4.1 95 0.3 CALM 0 7 0 4 1031.3 1031.3 0.2
23/05:30am 5.0 3.7 4.0 93 0.4 CALM 0 0 0 0 1031.2 - 0.2
23/05:00am 5.1 3.9 4.4 95 0.3 CALM 0 0 0 0 1031.0 - 0.2
23/04:30am 5.2 3.9 4.3 94 0.4 CALM 0 0 0 0 1030.9 - 0.2
23/04:00am 5.2 4.0 4.5 95 0.3 CALM 0 0 0 0 1031.0 - 0.2
23/03:30am 5.3 4.1 4.4 94 0.4 CALM 0 0 0 0 1031.3 - 0.2
23/03:00am 5.5 4.2 4.3 92 0.5 CALM 0 6 0 3 1031.5 1031.5 0.2
23/02:30am 5.8 4.6 4.6 92 0.5 CALM 0 0 0 0 1031.5 - 0.2
23/02:00am 6.0 4.8 4.8 92 0.5 CALM 0 0 0 0 1031.7 - 0.2
23/01:30am 6.2 5.1 5.0 92 0.5 CALM 0 0 0 0 1031.7 - 0.2
23/01:00am 6.4 5.3 5.0 91 0.6 CALM 0 0 0 0 1031.5 - 0.2
23/12:30am 6.6 5.5 5.0 89 0.7 CALM 0 0 0 0 1031.6 - 0.2
23/12:00am 6.7 5.6 5.3 91 0.6 CALM 0 0 0 0 1031.7 1031.7 0.2
 
Date/Time
CST
Tmp

°C
App
Tmp
°C
Dew
Point
°C
Rel
Hum
%
Delta-T

°C
Wind Press
QNH
hPa
Press
MSL
hPa
Rain
since
9 am
mm
Dir
 
Spd
km/h
Gust
km/h
Spd
kts
Gust
kts
22/11:30pm 7.2 6.2 5.4 88 0.8 CALM 0 0 0 0 1031.8 - 0.2
22/11:00pm 7.1 6.0 5.3 88 0.8 CALM 0 0 0 0 1031.9 - 0.2
22/10:30pm 7.5 6.5 5.5 87 0.9 CALM 0 0 0 0 1031.9 - 0.2
22/10:00pm 7.6 6.6 5.6 87 0.9 CALM 0 0 0 0 1032.0 - 0.2
22/09:30pm 8.3 6.9 5.6 83 1.2 E 2 7 1 4 1031.9 - 0.2
22/09:00pm 8.6 7.6 5.7 82 1.3 CALM 0 6 0 3 1032.0 1032.0 0.2
22/08:30pm 8.9 7.9 5.6 80 1.5 CALM 0 0 0 0 1031.9 - 0.2
22/08:00pm 9.3 8.3 5.8 79 1.6 CALM 0 0 0 0 1031.8 - 0.2
22/07:30pm 10.0 9.0 5.6 74 2.0 CALM 0 0 0 0 1031.7 - 0.2
22/07:00pm 10.9 9.5 5.4 69 2.5 SSE 2 7 1 4 1031.7 - 0.2
22/06:30pm 11.4 9.2 5.5 67 2.7 S 6 11 3 6 1031.5 - 0.2
22/06:00pm 12.1 9.3 5.1 62 3.2 SSE 9 19 5 10 1031.3 1031.3 0.2
22/05:30pm 12.7 9.9 5.1 60 3.5 S 9 22 5 12 1031.4 - 0.2
22/05:00pm 13.3 10.1 5.3 58 3.7 SSE 11 19 6 10 1031.4 - 0.2
22/04:30pm 13.9 10.9 5.8 58 3.8 SSE 11 17 6 9 1031.3 - 0.2
22/04:00pm 14.4 11.8 6.2 58 3.9 SE 9 17 5 9 1031.3 - 0.2
22/03:30pm 14.6 11.9 5.7 55 4.2 SSE 9 13 5 7 1031.1 - 0.2
22/03:00pm 15.2 12.1 5.5 52 4.6 SSE 11 19 6 10 1031.0 1031.0 0.2
22/02:30pm 15.4 13.1 5.7 52 4.6 SSE 7 17 4 9 1030.9 - 0.2
22/02:00pm 15.4 12.7 5.7 52 4.6 SSE 9 20 5 11 1031.0 - 0.2
22/01:30pm 15.1 12.9 6.1 55 4.3 SE 7 13 4 7 1031.2 - 0.2
22/01:00pm 14.9 12.6 5.8 54 4.4 S 7 13 4 7 1031.2 - 0.2
22/12:30pm 15.1 12.5 6.1 55 4.3 SSE 9 15 5 8 1031.4 - 0.2
22/12:00pm 15.9 12.9 5.9 51 4.8 SSE 11 20 6 11 1031.6 1031.6 0.0
22/11:30am 15.5 12.8 5.6 51 4.7 NE 9 17 5 9 1032.0 - 0.0
22/11:00am 14.7 12.5 6.1 56 4.1 ESE 7 15 4 8 1032.3 - 0.0
22/10:30am 14.1 11.9 6.1 58 3.8 ESE 7 17 4 9 1032.3 - 0.0
22/10:00am 13.3 11.1 6.1 61 3.4 SE 7 19 4 10 1032.1 - 0.0
22/09:30am 13.3 10.8 6.6 64 3.2 SSE 9 20 5 11 1031.7 - 0.0
22/09:00am 12.8 10.7 6.5 65 3.0 SE 7 19 4 10 1031.7 1031.7 0.0
22/08:30am 11.6 9.4 6.2 69 2.5 S 7 19 4 10 1031.5 - -
22/08:00am 11.4 9.5 6.5 72 2.3 SSE 6 11 3 6 1031.4 - -
22/07:30am 10.9 9.8 6.9 76 1.9 E 2 7 1 4 1031.1 - -
22/07:00am 10.8 9.8 7.4 79 1.6 SE 2 7 1 4 1030.9 - -
22/06:30am 9.9 9.5 8.2 89 0.8 CALM 0 7 0 4 1030.3 - -
22/06:00am 9.8 8.6 8.1 89 0.8 S 4 7 2 4 1030.0 1030.0 -
22/05:30am 8.7 8.2 7.9 95 0.4 CALM 0 0 0 0 1029.9 - -
22/05:00am 8.1 7.4 7.0 93 0.5 CALM 0 0 0 0 1029.8 - -
22/04:30am 7.9 7.2 7.0 94 0.4 CALM 0 0 0 0 1029.7 - -
22/04:00am 7.6 6.8 6.7 94 0.4 CALM 0 0 0 0 1029.6 - -
22/03:30am 7.1 6.3 6.4 95 0.3 CALM 0 0 0 0 1029.6 - -
22/03:00am 6.5 5.5 5.8 95 0.3 CALM 0 0 0 0 1029.7 1029.7 -
22/02:30am 6.5 5.5 5.6 94 0.4 CALM 0 0 0 0 1029.8 - -
22/02:00am 6.3 5.3 5.4 94 0.4 CALM 0 0 0 0 1029.6 - -
22/01:30am 6.6 5.6 5.7 94 0.4 CALM 0 0 0 0 1029.7 - -
22/01:00am 6.7 5.8 6.0 95 0.3 CALM 0 0 0 0 1029.6 - -
22/12:30am 7.1 6.2 6.0 93 0.5 CALM 0 0 0 0 1029.8 - -
22/12:00am 7.5 6.7 6.4 93 0.5 CALM 0 0 0 0 1029.7 1029.7 -
 
Date/Time
CST
Tmp

°C
App
Tmp
°C
Dew
Point
°C
Rel
Hum
%
Delta-T

°C
Wind Press
QNH
hPa
Press
MSL
hPa
Rain
since
9 am
mm
Dir
 
Spd
km/h
Gust
km/h
Spd
kts
Gust
kts
21/11:30pm 7.9 7.2 6.8 93 0.5 CALM 0 0 0 0 1029.7 - -
21/11:00pm 8.2 7.4 6.7 90 0.7 CALM 0 0 0 0 1029.9 - -
21/10:30pm 8.8 8.1 7.1 89 0.8 CALM 0 0 0 0 1030.0 - -
21/10:00pm 9.3 8.7 7.4 88 0.9 CALM 0 0 0 0 1029.9 - -
21/09:30pm 9.3 7.9 7.2 87 1.0 SSE 4 9 2 5 1029.9 - -
21/09:00pm 9.4 8.4 7.3 87 1.0 SSE 2 6 1 3 1029.9 1029.9 -
21/08:30pm 9.4 8.8 7.3 87 1.0 CALM 0 0 0 0 1029.7 - -
21/08:00pm 9.8 8.4 7.3 84 1.2 S 4 7 2 4 1029.5 - -
21/07:30pm 9.9 8.1 7.1 83 1.3 SSW 6 7 3 4 1029.4 - -
21/07:00pm 10.2 8.4 7.0 80 1.5 SW 6 7 3 4 1029.1 - -
21/06:30pm 10.9 9.8 7.1 77 1.8 SW 2 6 1 3 1028.9 - -
21/06:00pm 11.9 9.7 6.4 69 2.6 SSE 7 13 4 7 1028.6 1028.6 -
21/05:30pm 12.2 10.1 6.7 69 2.6 SSE 7 15 4 8 1028.3 - -
21/05:00pm 12.1 10.1 6.1 67 2.8 S 6 11 3 6 1027.9 - -
21/04:30pm 13.1 10.1 5.9 61 3.4 S 11 19 6 10 1027.7 - -
21/04:00pm 13.9 11.5 5.1 55 4.1 S 7 17 4 9 1027.3 - -
21/02:30pm 13.6 10.2 6.0 60 3.6 SW 13 19 7 10 1027.1 - 0.0
21/02:00pm 13.5 11.8 6.1 61 3.5 SSW 4 9 2 5 1027.3 - 0.0
21/01:30pm 13.3 11.0 5.9 61 3.5 SSE 7 13 4 7 1027.4 - 0.0
21/01:00pm 13.6 11.5 6.5 62 3.4 SW 7 17 4 9 1027.6 - 0.0
21/12:30pm 13.5 10.2 4.8 55 4.0 SSW 11 20 6 11 1027.7 - 0.0
21/12:00pm 13.6 12.0 6.2 61 3.5 SSE 4 11 2 6 1028.0 1028.0 0.0
21/11:30am 12.2 9.6 6.0 66 2.9 S 9 15 5 8 1028.5 - 0.0
21/11:00am 11.7 9.2 8.0 78 1.8 SW 11 19 6 10 1028.8 - 0.0
21/10:30am 12.0 10.5 6.7 70 2.5 SSW 4 9 2 5 1028.7 - 0.0
21/10:00am 11.2 10.0 6.3 72 2.3 SSE 2 9 1 5 1028.6 - 0.0
21/09:30am 11.0 9.7 6.0 71 2.3 S 2 9 1 5 1028.3 - 0.0
21/09:00am 10.2 9.4 6.3 77 1.8 CALM 0 0 0 0 1028.1 1028.1 0.0
21/08:30am 9.6 8.9 7.0 84 1.2 CALM 0 0 0 0 1027.8 - 0.0
21/08:00am 9.1 8.0 7.0 87 1.0 NE 2 6 1 3 1027.3 - 0.0
21/07:30am 8.9 7.7 6.5 85 1.1 N 2 7 1 4 1027.0 - 0.0
21/07:00am 8.6 7.0 6.4 86 1.0 WSW 4 9 2 5 1026.7 - 0.0
21/06:30am 8.1 6.4 5.9 86 1.0 NNW 4 11 2 6 1026.1 - 0.0
21/06:00am 8.1 7.2 6.1 87 0.9 CALM 0 0 0 0 1025.7 1025.7 0.0
21/05:30am 8.4 7.2 6.4 87 0.9 SSE 2 6 1 3 1025.7 - 0.0
21/05:00am 8.6 7.2 7.1 90 0.7 ESE 4 7 2 4 1025.3 - 0.0
21/04:30am 9.1 8.5 7.4 89 0.8 CALM 0 0 0 0 1025.1 - 0.0
21/04:00am 9.5 8.5 7.4 87 1.0 S 2 9 1 5 1024.9 - 0.0
21/03:30am 9.7 8.0 7.4 85 1.1 SSW 6 7 3 4 1024.7 - 0.0
21/03:00am 10.0 8.1 7.5 84 1.2 SW 7 11 4 6 1024.7 1024.7 0.0
21/02:30am 10.2 9.2 7.5 83 1.3 SSE 2 6 1 3 1024.6 - 0.0
21/02:00am 10.2 9.0 7.9 86 1.1 SW 4 7 2 4 1024.6 - 0.0
21/01:30am 10.4 9.9 7.7 83 1.3 CALM 0 4 0 2 1024.5 - 0.0
21/01:00am 10.3 9.1 8.2 87 1.0 SSW 4 7 2 4 1024.4 - 0.0
21/12:30am 10.4 10.0 8.3 87 1.0 CALM 0 0 0 0 1024.2 - 0.0
21/12:00am 10.5 10.3 8.9 90 0.8 CALM 0 0 0 0 1024.1 1024.1 0.0
 
Date/Time
CST
Tmp

°C
App
Tmp
°C
Dew
Point
°C
Rel
Hum
%
Delta-T

°C
Wind Press
QNH
hPa
Press
MSL
hPa
Rain
since
9 am
mm
Dir
 
Spd
km/h
Gust
km/h
Spd
kts
Gust
kts
20/11:30pm 10.7 9.2 8.4 86 1.1 SSW 6 9 3 5 1024.0 - 0.0
20/11:00pm 11.0 8.8 7.7 80 1.6 SSW 9 13 5 7 1023.9 - 0.0
20/10:30pm 11.0 9.2 7.9 81 1.5 SSW 7 13 4 7 1023.8 - 0.0
20/10:00pm 11.0 9.4 8.1 82 1.4 SSE 6 11 3 6 1023.8 - 0.0
20/09:30pm 11.0 9.3 7.5 79 1.7 SSW 6 11 3 6 1023.6 - 0.0
20/09:00pm 10.7 8.7 7.3 79 1.6 SW 7 11 4 6 1023.3 1023.3 0.0
20/08:30pm 10.7 8.7 6.9 77 1.8 SW 7 11 4 6 1023.2 - 0.0
20/08:00pm 10.6 8.5 6.8 77 1.8 SSW 7 11 4 6 1023.0 - 0.0
20/07:30pm 10.1 8.1 6.4 78 1.7 SW 6 9 3 5 1022.9 - 0.0
20/07:00pm 10.3 9.0 6.0 75 2.0 SSW 2 7 1 4 1022.4 - 0.0
20/06:30pm 11.1 9.4 5.7 69 2.5 S 4 7 2 4 1022.0 - 0.0
20/06:00pm 11.6 9.4 5.3 65 2.9 SSW 6 11 3 6 1021.5 1021.5 0.0
20/05:30pm 12.5 9.5 4.3 57 3.7 SSW 9 17 5 9 1021.0 - 0.0
20/05:00pm 13.1 9.7 4.0 54 4.1 SSW 11 17 6 9 1020.8 - 0.0
20/04:30pm 13.6 9.5 4.2 53 4.3 SSW 15 24 8 13 1020.4 - 0.0
20/04:00pm 14.2 9.9 3.0 47 5.0 SSW 15 22 8 12 1020.1 - 0.0
20/03:30pm 14.8 10.4 5.0 52 4.6 SW 17 28 9 15 1019.8 - 0.0

Latest Capital City Observations: Canberra | Sydney | Melbourne | Brisbane | Adelaide | Perth | Hobart | Darwin

Other Formats:

Comma delimited format used in spreadsheet applications
http://www.bom.gov.au/fwo/IDS60901/IDS60901.94675.axf

JavaScript Object Notation format (JSON) in row-major order
http://www.bom.gov.au/fwo/IDS60901/IDS60901.94675.json